Time;durP1;ratioP1;P1;durP2;ratioP2;P2;SDS_P1;SDS_P2;PMS_P1;PMS_P2;Temp;Humidity;BMP_temperature;BMP_pressure;BME280_temperature;BME280_humidity;BME280_pressure;Samples;Min_cycle;Max_cycle;Signal;HPM_P1;HPM_P2
2022/11/21 00:00:39;;;;;;;2.23;1.50;;;;;;;4.44;100.00;95890.47;5105342;27;20222;-77
2022/11/21 00:03:07;;;;;;;1.70;1.30;;;;;;;4.48;100.00;95904.25;5080737;28;20207;-77
2022/11/21 00:05:34;;;;;;;2.53;1.43;;;;;;;4.41;100.00;95885.53;5077866;28;20196;-77
2022/11/21 00:08:01;;;;;;;2.57;1.60;;;;;;;4.37;100.00;95873.59;5084267;28;20195;-76
2022/11/21 00:10:28;;;;;;;2.00;1.63;;;;;;;4.34;100.00;95884.69;5076499;28;20243;-78
2022/11/21 00:12:56;;;;;;;2.40;1.63;;;;;;;4.30;100.00;95877.28;5082898;28;20239;-77
2022/11/21 00:15:25;;;;;;;1.67;1.50;;;;;;;4.40;100.00;95880.41;5083252;28;20189;-77
2022/11/21 00:17:53;;;;;;;1.57;1.37;;;;;;;4.45;100.00;95876.06;5086641;28;20205;-77
2022/11/21 00:20:22;;;;;;;2.30;1.60;;;;;;;4.36;100.00;95857.75;5087129;28;20227;-78
2022/11/21 00:22:49;;;;;;;3.87;1.73;;;;;;;4.33;100.00;95875.03;5088653;28;20204;-77
2022/11/21 00:25:16;;;;;;;1.90;1.70;;;;;;;4.21;100.00;95859.78;5090234;28;20198;-78
2022/11/21 00:27:44;;;;;;;2.27;2.00;;;;;;;4.22;100.00;95856.94;5101644;28;20272;-77
2022/11/21 00:30:12;;;;;;;2.07;1.73;;;;;;;4.20;100.00;95861.63;5082243;28;20282;-77
2022/11/21 00:32:39;;;;;;;2.37;1.80;;;;;;;4.14;100.00;95857.13;5084289;28;20198;-77
2022/11/21 00:35:08;;;;;;;3.60;1.70;;;;;;;4.16;100.00;95860.41;5090004;28;20196;-77
2022/11/21 00:37:35;;;;;;;2.00;1.80;;;;;;;4.20;100.00;95853.63;5087962;28;20229;-77
2022/11/21 00:40:02;;;;;;;1.87;1.67;;;;;;;4.23;100.00;95847.06;5088936;28;20223;-78
2022/11/21 00:42:29;;;;;;;2.30;1.40;;;;;;;4.27;100.00;95851.78;5085286;28;20206;-77
2022/11/21 00:44:56;;;;;;;2.03;1.70;;;;;;;4.32;100.00;95851.19;5072957;28;20197;-78
2022/11/21 00:47:23;;;;;;;1.83;1.60;;;;;;;4.31;100.00;95854.88;5086987;28;20209;-77
2022/11/21 00:49:50;;;;;;;3.97;1.70;;;;;;;4.26;100.00;95851.97;5091843;28;20235;-78
2022/11/21 00:52:19;;;;;;;2.10;1.90;;;;;;;4.33;100.00;95842.97;5095096;28;20224;-77
2022/11/21 00:54:46;;;;;;;1.57;1.43;;;;;;;4.34;100.00;95838.44;5090536;28;20292;-78
2022/11/21 00:57:13;;;;;;;2.40;1.70;;;;;;;4.28;100.00;95826.72;5086333;28;20205;-77
2022/11/21 00:59:40;;;;;;;1.60;1.50;;;;;;;4.35;100.00;95814.16;5087848;28;20228;-77
2022/11/21 01:02:07;;;;;;;1.47;1.37;;;;;;;4.32;100.00;95803.91;5086862;28;20292;-77
2022/11/21 01:04:35;;;;;;;1.67;1.43;;;;;;;4.38;100.00;95813.78;5093514;28;20212;-78
2022/11/21 01:07:02;;;;;;;3.10;1.50;;;;;;;4.32;100.00;95821.78;5086343;28;20208;-77
2022/11/21 01:09:31;;;;;;;1.90;1.47;;;;;;;4.26;100.00;95819.91;5080662;28;20205;-77
2022/11/21 01:11:58;;;;;;;1.33;1.23;;;;;;;4.33;100.00;95823.44;5085894;28;20208;-78
2022/11/21 01:14:25;;;;;;;1.50;1.40;;;;;;;4.35;100.00;95824.03;5090734;28;20234;-77
2022/11/21 01:16:52;;;;;;;1.63;1.53;;;;;;;4.24;100.00;95816.63;5079599;28;20225;-77
2022/11/21 01:19:19;;;;;;;1.77;1.47;;;;;;;4.23;100.00;95831.84;5080769;28;20292;-77
2022/11/21 01:21:46;;;;;;;1.70;1.60;;;;;;;4.24;100.00;95819.31;5087577;28;20225;-76
2022/11/21 01:24:13;;;;;;;1.60;1.50;;;;;;;4.32;100.00;95814.59;5086152;28;20215;-77
2022/11/21 01:26:42;;;;;;;2.73;1.77;;;;;;;4.27;100.00;95813.53;5085570;28;20220;-77
2022/11/21 01:29:09;;;;;;;1.90;1.70;;;;;;;4.33;100.00;95831.47;5089320;28;20200;-77
2022/11/21 01:31:39;;;;;;;2.70;1.40;;;;;;;4.40;100.00;95851.00;5099651;28;20193;-77
2022/11/21 01:34:06;;;;;;;2.00;1.30;;;;;;;4.39;100.00;95826.09;5087604;28;20212;-80
2022/11/21 01:36:34;;;;;;;1.50;1.40;;;;;;;4.42;100.00;95816.88;5087407;28;20268;-77
2022/11/21 01:39:03;;;;;;;3.00;1.30;;;;;;;4.43;100.00;95821.97;5088714;28;20220;-77
2022/11/21 01:41:33;;;;;;;1.53;1.40;;;;;;;4.42;100.00;95825.69;5088401;28;20248;-78
2022/11/21 01:44:02;;;;;;;1.20;1.10;;;;;;;4.43;100.00;95821.97;5101393;28;20201;-79
2022/11/21 01:46:30;;;;;;;1.20;1.10;;;;;;;4.42;100.00;95806.97;5088338;28;20197;-80
2022/11/21 01:49:03;;;;;;;1.43;1.30;;;;;;;4.48;100.00;95798.16;5079611;28;20214;-76
2022/11/21 01:51:33;;;;;;;1.20;1.10;;;;;;;4.52;100.00;95802.03;5079865;28;20201;-79
2022/11/21 01:54:06;;;;;;;1.40;1.30;;;;;;;4.52;100.00;95809.25;5108175;28;20191;-77
2022/11/21 01:56:40;;;;;;;1.50;1.27;;;;;;;4.50;100.00;95796.09;5106205;28;20299;-77
2022/11/21 01:59:11;;;;;;;2.73;1.13;;;;;;;4.49;100.00;95805.16;5091589;28;20262;-77
2022/11/21 02:01:40;;;;;;;1.30;1.20;;;;;;;4.49;100.00;95797.13;5094494;28;20314;-77
2022/11/21 02:04:08;;;;;;;1.30;1.20;;;;;;;4.42;100.00;95787.47;5090766;28;20205;-78
2022/11/21 02:06:36;;;;;;;2.30;1.40;;;;;;;4.41;100.00;95783.16;5094123;28;20480;-76
2022/11/21 02:09:04;;;;;;;1.30;1.10;;;;;;;4.32;100.00;95752.31;5095578;28;20204;-76
2022/11/21 02:11:37;;;;;;;1.73;1.30;;;;;;;4.35;100.00;95765.22;5082478;28;20223;-78
2022/11/21 02:14:05;;;;;;;1.30;1.20;;;;;;;4.30;100.00;95762.38;5086652;28;20259;-76
2022/11/21 02:16:36;;;;;;;1.10;1.00;;;;;;;4.35;100.00;95750.03;5088736;28;20204;-76
2022/11/21 02:19:05;;;;;;;1.30;1.20;;;;;;;4.32;100.00;95707.69;5089374;28;20325;-78
2022/11/21 02:21:41;;;;;;;1.87;1.40;;;;;;;4.34;100.00;95716.31;5090494;28;20278;-76
2022/11/21 02:24:15;;;;;;;1.20;1.10;;;;;;;4.27;100.00;95736.88;5086349;28;20204;-76
2022/11/21 02:26:46;;;;;;;1.30;1.20;;;;;;;4.25;100.00;95720.25;5079229;28;20217;-77
2022/11/21 02:29:13;;;;;;;1.63;1.13;;;;;;;4.26;100.00;95700.47;5099736;28;20238;-77
2022/11/21 02:31:39;;;;;;;1.30;1.13;;;;;;;4.22;100.00;95679.75;5087275;28;20201;-77
2022/11/21 02:34:07;;;;;;;1.40;1.20;;;;;;;4.25;100.00;95676.66;5096926;28;20212;-78
2022/11/21 02:36:40;;;;;;;0.90;0.90;;;;;;;4.34;100.00;95670.06;5092926;28;20211;-76
2022/11/21 02:39:10;;;;;;;0.60;0.60;;;;;;;4.40;100.00;95651.34;5083524;28;20235;-76
2022/11/21 02:41:43;;;;;;;1.63;0.80;;;;;;;4.50;100.00;95640.22;5087439;28;20258;-77
2022/11/21 02:44:20;;;;;;;1.40;1.30;;;;;;;4.60;100.00;95650.47;5084753;28;20231;-77
2022/11/21 02:46:50;;;;;;;0.70;0.70;;;;;;;4.56;100.00;95634.84;5090003;28;20197;-76
2022/11/21 02:49:23;;;;;;;1.00;0.90;;;;;;;4.65;100.00;95623.94;5084929;28;20243;-77
2022/11/21 02:51:50;;;;;;;0.60;0.60;;;;;;;4.84;100.00;95620.38;5079939;28;20201;-77
2022/11/21 02:54:17;;;;;;;0.70;0.70;;;;;;;5.00;100.00;95616.38;5091030;28;20201;-76
2022/11/21 02:56:44;;;;;;;0.70;0.70;;;;;;;5.10;100.00;95617.56;5090257;28;20202;-77
2022/11/21 02:59:13;;;;;;;0.70;0.70;;;;;;;5.15;100.00;95611.56;5097335;28;20192;-76
2022/11/21 03:01:41;;;;;;;0.60;0.60;;;;;;;5.11;100.00;95591.59;5085878;28;20217;-78
2022/11/21 03:04:08;;;;;;;0.60;0.60;;;;;;;5.09;100.00;95588.34;5085721;28;20205;-77
2022/11/21 03:06:35;;;;;;;0.80;0.80;;;;;;;5.08;100.00;95581.34;5084863;28;20224;-77
2022/11/21 03:09:02;;;;;;;0.70;0.70;;;;;;;5.11;100.00;95575.53;5092362;28;20205;-77
2022/11/21 03:11:29;;;;;;;0.70;0.70;;;;;;;5.11;100.00;95584.41;5093880;28;20221;-77
2022/11/21 03:13:56;;;;;;;0.70;0.70;;;;;;;5.10;100.00;95580.09;5092221;28;20198;-77
2022/11/21 03:16:24;;;;;;;0.50;0.50;;;;;;;5.15;100.00;95579.44;5090590;28;20258;-77
2022/11/21 03:18:51;;;;;;;0.70;0.70;;;;;;;5.17;100.00;95580.88;5088650;28;20200;-77
2022/11/21 03:21:19;;;;;;;0.70;0.70;;;;;;;5.10;100.00;95561.38;5089695;28;20232;-78
2022/11/21 03:23:46;;;;;;;1.10;0.70;;;;;;;5.11;100.00;95581.72;5093078;28;20216;-78
2022/11/21 03:26:13;;;;;;;0.70;0.70;;;;;;;5.12;100.00;95606.63;5082915;28;20201;-77
2022/11/21 03:28:41;;;;;;;0.90;0.90;;;;;;;5.17;100.00;95625.56;5087895;28;20194;-77
2022/11/21 03:31:09;;;;;;;0.90;0.83;;;;;;;5.11;100.00;95619.19;5077358;28;20217;-77
2022/11/21 03:33:37;;;;;;;0.80;0.80;;;;;;;5.06;100.00;95628.91;5083121;28;20197;-77
2022/11/21 03:36:08;;;;;;;1.07;0.97;;;;;;;5.06;100.00;95640.41;5092831;28;20272;-78
2022/11/21 03:38:35;;;;;;;1.20;1.10;;;;;;;5.02;100.00;95644.53;5091152;28;20383;-78
2022/11/21 03:41:04;;;;;;;1.00;1.00;;;;;;;4.98;100.00;95632.63;5093507;28;20224;-78
2022/11/21 03:43:31;;;;;;;1.10;1.00;;;;;;;4.94;100.00;95610.00;5095521;27;20240;-78
2022/11/21 03:45:58;;;;;;;1.37;1.27;;;;;;;4.91;100.00;95623.81;5088906;28;20204;-76
2022/11/21 03:48:25;;;;;;;1.17;1.07;;;;;;;4.91;100.00;95653.25;5094827;28;20760;-77
2022/11/21 03:50:54;;;;;;;1.10;1.00;;;;;;;4.81;100.00;95636.81;5083137;28;20239;-77
2022/11/21 03:53:21;;;;;;;1.20;0.90;;;;;;;4.83;100.00;95635.59;5094683;28;20218;-78
2022/11/21 03:55:48;;;;;;;1.20;1.10;;;;;;;4.74;100.00;95636.84;5094921;28;20200;-77
2022/11/21 03:58:15;;;;;;;1.60;1.17;;;;;;;4.86;100.00;95645.03;5096478;28;20212;-76
2022/11/21 04:00:42;;;;;;;0.97;0.87;;;;;;;4.81;100.00;95629.63;5090227;28;20200;-78
2022/11/21 04:03:09;;;;;;;1.90;0.97;;;;;;;4.79;100.00;95604.13;5092398;28;20206;-76
2022/11/21 04:05:36;;;;;;;2.10;0.80;;;;;;;4.80;100.00;95598.56;5091601;28;20197;-77
2022/11/21 04:08:05;;;;;;;2.23;0.90;;;;;;;4.81;100.00;95610.91;5094303;28;20200;-78
2022/11/21 04:10:32;;;;;;;1.00;1.00;;;;;;;4.87;100.00;95635.97;5073414;28;20229;-77
2022/11/21 04:12:59;;;;;;;1.10;1.00;;;;;;;4.86;100.00;95635.16;5095613;28;20212;-80
2022/11/21 04:15:26;;;;;;;1.00;0.90;;;;;;;4.89;100.00;95631.22;5086624;28;20205;-77
2022/11/21 04:17:53;;;;;;;0.80;0.80;;;;;;;4.90;100.00;95619.50;5096812;28;20236;-77
2022/11/21 04:20:20;;;;;;;2.00;0.90;;;;;;;4.80;100.00;95619.13;5091565;28;20205;-77
2022/11/21 04:22:47;;;;;;;1.13;0.97;;;;;;;4.76;100.00;95607.22;5086967;28;20231;-77
2022/11/21 04:25:16;;;;;;;2.40;1.40;;;;;;;4.79;100.00;95609.47;5083584;28;20200;-77
2022/11/21 04:27:42;;;;;;;1.13;1.00;;;;;;;4.79;100.00;95620.97;5087516;28;20200;-77
2022/11/21 04:30:11;;;;;;;0.83;0.83;;;;;;;4.86;100.00;95621.78;5087477;28;20211;-77
2022/11/21 04:32:37;;;;;;;1.10;0.80;;;;;;;4.93;100.00;95608.38;5083470;28;20200;-79
2022/11/21 04:35:06;;;;;;;2.13;1.40;;;;;;;4.84;100.00;95615.00;5095274;28;20212;-77
2022/11/21 04:37:32;;;;;;;1.30;1.00;;;;;;;4.77;100.00;95630.25;5092092;28;20211;-77
2022/11/21 04:40:00;;;;;;;1.20;1.10;;;;;;;4.79;100.00;95628.19;5096826;28;20209;-79
2022/11/21 04:42:28;;;;;;;1.03;0.93;;;;;;;4.84;100.00;95621.19;5071075;28;20267;-78
2022/11/21 04:44:56;;;;;;;0.80;0.80;;;;;;;4.74;100.00;95601.25;5087185;28;20224;-78
2022/11/21 04:47:23;;;;;;;1.23;1.10;;;;;;;4.70;100.00;95600.84;5084444;28;20201;-77
2022/11/21 04:49:50;;;;;;;1.67;1.00;;;;;;;4.68;100.00;95592.22;5084207;28;20237;-78
2022/11/21 04:52:17;;;;;;;0.80;0.80;;;;;;;4.63;100.00;95589.38;5080108;28;20297;-78
2022/11/21 04:54:44;;;;;;;1.30;1.10;;;;;;;4.71;100.00;95604.34;5088424;28;20341;-77
2022/11/21 04:57:11;;;;;;;1.10;1.00;;;;;;;4.77;100.00;95608.84;5081367;28;20198;-80
2022/11/21 04:59:39;;;;;;;1.37;1.03;;;;;;;4.78;100.00;95607.81;5090015;28;20207;-78
2022/11/21 05:02:06;;;;;;;1.63;1.07;;;;;;;4.74;100.00;95614.63;5079801;28;20229;-78
2022/11/21 05:04:33;;;;;;;1.13;1.00;;;;;;;4.73;100.00;95596.94;5086113;28;20451;-77
2022/11/21 05:07:01;;;;;;;2.13;1.10;;;;;;;4.74;100.00;95587.91;5084815;28;20201;-78
2022/11/21 05:09:28;;;;;;;0.80;0.80;;;;;;;4.86;100.00;95612.91;5076758;28;20258;-77
2022/11/21 05:14:43;;;;;;;2.37;0.93;;;;;;;4.83;100.00;95597.31;5067498;28;20200;-77
2022/11/21 05:17:10;;;;;;;0.80;0.80;;;;;;;4.78;100.00;95599.78;5094745;28;20204;-77
2022/11/21 05:19:37;;;;;;;1.43;1.10;;;;;;;4.77;100.00;95603.50;5086790;28;20204;-77
2022/11/21 05:22:06;;;;;;;0.90;0.90;;;;;;;4.84;100.00;95609.66;5086348;28;20223;-77
2022/11/21 05:24:33;;;;;;;0.70;0.70;;;;;;;4.85;100.00;95601.41;5076219;28;20208;-77
2022/11/21 05:27:00;;;;;;;1.10;1.00;;;;;;;4.79;100.00;95590.75;5091408;28;20219;-79
2022/11/21 05:29:27;;;;;;;1.40;1.10;;;;;;;4.79;100.00;95590.75;5101290;28;20206;-77
2022/11/21 05:31:55;;;;;;;1.30;1.00;;;;;;;4.79;100.00;95593.41;5088316;28;20188;-78
2022/11/21 05:34:23;;;;;;;0.93;0.90;;;;;;;4.79;100.00;95588.88;5091109;28;20254;-78
2022/11/21 05:36:55;;;;;;;2.43;1.83;;;;;;;4.99;100.00;95586.13;5092006;28;20320;-80
2022/11/21 05:39:23;;;;;;;2.70;0.90;;;;;;;4.90;100.00;95585.56;5076024;28;20212;-78
2022/11/21 05:41:50;;;;;;;2.17;1.40;;;;;;;4.91;100.00;95595.22;5090584;28;20217;-78
2022/11/21 05:44:16;;;;;;;2.27;1.27;;;;;;;4.90;100.00;95584.72;5090055;28;20205;-78
2022/11/21 05:46:45;;;;;;;1.40;1.20;;;;;;;5.04;100.00;95594.31;5089585;28;20201;-79
2022/11/21 05:49:14;;;;;;;1.43;1.13;;;;;;;5.01;100.00;95616.16;5090611;28;20586;-79
2022/11/21 05:51:41;;;;;;;1.80;1.30;;;;;;;4.93;100.00;95609.19;5091079;28;20279;-77
2022/11/21 05:54:08;;;;;;;1.10;1.00;;;;;;;4.91;100.00;95608.59;5092094;28;20205;-79
2022/11/21 05:56:35;;;;;;;1.00;0.90;;;;;;;4.89;100.00;95604.47;5094358;28;20199;-79
2022/11/21 05:59:02;;;;;;;2.13;0.97;;;;;;;4.97;100.00;95612.25;5082938;28;20219;-78
2022/11/21 06:04:15;;;;;;;1.73;1.27;;;;;;;4.96;100.00;95602.59;5091334;28;20260;-78
2022/11/21 06:06:42;;;;;;;1.27;1.00;;;;;;;4.93;100.00;95600.38;5098270;28;20197;-79
2022/11/21 06:09:09;;;;;;;1.40;1.30;;;;;;;4.97;100.00;95612.25;5089739;28;20305;-78
2022/11/21 06:11:36;;;;;;;4.10;3.20;;;;;;;4.95;100.00;95620.50;5085866;28;20217;-78
2022/11/21 06:14:04;;;;;;;2.97;2.00;;;;;;;4.97;100.00;95616.78;5089531;28;20205;-79
2022/11/21 06:16:33;;;;;;;1.20;1.10;;;;;;;4.97;100.00;95625.63;5098144;28;20200;-78
2022/11/21 06:19:00;;;;;;;1.40;1.13;;;;;;;4.90;100.00;95620.31;5084949;28;20258;-79
2022/11/21 06:21:29;;;;;;;1.83;1.30;;;;;;;4.87;100.00;95628.75;5090772;28;20213;-78
2022/11/21 06:23:58;;;;;;;3.07;1.40;;;;;;;4.87;100.00;95641.31;5087765;28;20241;-80
2022/11/21 06:26:27;;;;;;;2.00;1.30;;;;;;;4.89;100.00;95631.22;5086647;28;20204;-78
2022/11/21 06:28:55;;;;;;;1.53;1.10;;;;;;;5.00;100.00;95625.22;5086992;28;20209;-78
2022/11/21 06:31:24;;;;;;;1.10;1.00;;;;;;;5.03;100.00;95624.78;5088646;28;20231;-80
2022/11/21 06:33:52;;;;;;;1.00;0.90;;;;;;;5.02;100.00;95617.00;5088352;28;20244;-80
2022/11/21 06:36:20;;;;;;;1.83;1.57;;;;;;;4.99;100.00;95636.97;5085095;28;20206;-80
2022/11/21 06:38:49;;;;;;;7.00;4.30;;;;;;;4.96;100.00;95650.75;5101668;27;20305;-80
2022/11/21 06:41:17;;;;;;;1.50;1.30;;;;;;;5.04;100.00;95653.19;5077772;28;20208;-80
2022/11/21 06:43:44;;;;;;;2.30;1.23;;;;;;;5.07;100.00;95651.94;5086693;28;20269;-80
2022/11/21 06:46:14;;;;;;;1.60;1.40;;;;;;;5.01;100.00;95642.94;5086942;28;20197;-80
2022/11/21 06:48:42;;;;;;;2.50;1.30;;;;;;;5.01;100.00;95637.56;5087419;28;20210;-80
2022/11/21 06:51:13;;;;;;;1.93;1.10;;;;;;;4.95;100.00;95643.75;5085491;28;20263;-79
2022/11/21 06:53:40;;;;;;;2.20;1.17;;;;;;;4.93;100.00;95635.94;5087873;28;20193;-79
2022/11/21 06:56:09;;;;;;;1.33;1.13;;;;;;;5.01;100.00;95637.56;5085349;28;20247;-79
2022/11/21 06:58:36;;;;;;;1.40;1.07;;;;;;;5.03;100.00;95640.00;5087108;28;20292;-79
2022/11/21 07:01:05;;;;;;;2.37;1.20;;;;;;;5.04;100.00;95637.13;5087530;28;20205;-79
2022/11/21 07:03:32;;;;;;;3.10;1.60;;;;;;;5.04;100.00;95644.34;5088360;28;20216;-79
2022/11/21 07:06:01;;;;;;;3.90;2.70;;;;;;;5.04;100.00;95647.00;5091655;28;20200;-79
2022/11/21 07:08:28;;;;;;;2.37;1.70;;;;;;;5.08;100.00;95629.50;5083772;28;20208;-79
2022/11/21 07:11:00;;;;;;;1.30;1.20;;;;;;;5.09;100.00;95629.31;5091229;28;20242;-79
2022/11/21 07:13:28;;;;;;;2.20;2.00;;;;;;;5.03;100.00;95635.47;5093626;28;20200;-79
2022/11/21 07:16:01;;;;;;;1.80;1.30;;;;;;;5.07;100.00;95642.06;5096764;28;20213;-79
2022/11/21 07:18:28;;;;;;;4.17;1.90;;;;;;;5.06;100.00;95639.59;5075623;28;20205;-79
2022/11/21 07:20:58;;;;;;;5.90;1.40;;;;;;;5.16;100.00;95627.41;5092070;28;20276;-79
2022/11/21 07:23:25;;;;;;;1.77;1.60;;;;;;;5.15;100.00;95622.25;5095416;28;20216;-79
2022/11/21 07:25:52;;;;;;;2.40;1.70;;;;;;;5.03;100.00;95603.38;5087220;28;20202;-79
2022/11/21 07:28:19;;;;;;;2.87;1.70;;;;;;;5.09;100.00;95613.25;5090560;28;20205;-79
2022/11/21 07:30:47;;;;;;;3.00;2.20;;;;;;;5.11;100.00;95616.50;5092797;28;20249;-79
2022/11/21 07:33:14;;;;;;;2.17;1.70;;;;;;;5.09;100.00;95591.03;5089877;28;20232;-79
2022/11/21 07:35:42;;;;;;;2.80;1.87;;;;;;;5.09;100.00;95604.41;5090367;28;20192;-80
2022/11/21 07:38:09;;;;;;;2.40;1.97;;;;;;;5.10;100.00;95600.69;5099252;28;20272;-79
2022/11/21 07:40:36;;;;;;;2.53;1.80;;;;;;;5.11;100.00;95607.66;5087679;28;20201;-79
2022/11/21 07:43:06;;;;;;;3.73;1.90;;;;;;;5.18;100.00;95611.97;5087854;28;20295;-79
2022/11/21 07:45:33;;;;;;;3.10;2.07;;;;;;;5.23;100.00;95598.75;5082507;28;20198;-78
2022/11/21 07:48:04;;;;;;;2.80;2.27;;;;;;;5.23;100.00;95584.53;5095364;28;20231;-79
2022/11/21 07:50:31;;;;;;;3.03;2.37;;;;;;;5.22;100.00;95582.91;5084441;28;20237;-79
2022/11/21 07:52:59;;;;;;;2.57;1.90;;;;;;;5.24;100.00;95578.16;5084472;28;20217;-80
2022/11/21 07:55:28;;;;;;;2.73;2.10;;;;;;;5.23;100.00;95587.22;5077292;28;20215;-79
2022/11/21 07:57:59;;;;;;;4.03;2.53;;;;;;;5.23;100.00;95582.69;5087045;28;20200;-78
2022/11/21 08:00:27;;;;;;;2.87;1.97;;;;;;;5.26;100.00;95584.13;5103550;27;20297;-79
2022/11/21 08:02:54;;;;;;;2.77;1.93;;;;;;;5.17;100.00;95577.38;5091531;28;20216;-79
2022/11/21 08:05:23;;;;;;;2.03;1.50;;;;;;;5.09;100.00;95564.25;5088947;28;20205;-79
2022/11/21 08:07:51;;;;;;;1.63;1.30;;;;;;;5.12;100.00;95564.63;5087860;28;20220;-79
2022/11/21 08:10:19;;;;;;;4.33;1.43;;;;;;;5.12;100.00;95555.78;5089830;28;20300;-79
2022/11/21 08:12:46;;;;;;;2.30;1.00;;;;;;;5.16;100.00;95571.22;5090022;28;20201;-79
2022/11/21 08:15:13;;;;;;;1.50;1.20;;;;;;;5.12;100.00;95555.78;5087921;28;20207;-79
2022/11/21 08:17:40;;;;;;;1.57;1.17;;;;;;;5.18;100.00;95554.94;5091354;28;20215;-79
2022/11/21 08:20:09;;;;;;;1.47;0.93;;;;;;;5.17;100.00;95546.09;5096414;28;20212;-79
2022/11/21 08:22:40;;;;;;;1.43;1.30;;;;;;;5.17;100.00;95558.66;5091686;28;20307;-78
2022/11/21 08:25:09;;;;;;;2.23;1.60;;;;;;;5.26;100.00;95550.16;5085614;28;20208;-78
2022/11/21 08:27:37;;;;;;;1.90;1.50;;;;;;;5.23;100.00;95550.56;5089602;28;20193;-78
2022/11/21 08:30:06;;;;;;;2.00;1.70;;;;;;;5.40;100.00;95545.50;5095391;28;20231;-78
2022/11/21 08:32:33;;;;;;;2.60;1.90;;;;;;;5.40;100.00;95542.84;5081151;28;20197;-79
2022/11/21 08:35:01;;;;;;;5.53;1.70;;;;;;;5.42;100.00;95542.63;5088905;28;20201;-78
2022/11/21 08:37:28;;;;;;;3.17;1.03;;;;;;;5.39;100.00;95527.81;5078465;28;20208;-79
2022/11/21 08:39:59;;;;;;;2.77;0.90;;;;;;;5.42;100.00;95527.38;5087151;28;20213;-79
2022/11/21 08:42:26;;;;;;;1.17;0.87;;;;;;;5.58;100.00;95523.34;5085212;28;20232;-80
2022/11/21 08:44:54;;;;;;;1.10;1.00;;;;;;;5.71;100.00;95520.53;5090784;28;20207;-79
2022/11/21 08:47:21;;;;;;;1.63;1.00;;;;;;;5.69;100.00;95506.56;5098238;28;20273;-79
2022/11/21 08:49:49;;;;;;;1.17;1.00;;;;;;;5.88;100.00;95494.84;5085819;28;20277;-79
2022/11/21 08:52:17;;;;;;;1.00;0.90;;;;;;;5.88;100.00;95481.44;5085844;28;20290;-80
2022/11/21 08:54:44;;;;;;;0.90;0.83;;;;;;;6.01;100.00;95483.19;5084911;28;20209;-80
2022/11/21 08:57:13;;;;;;;2.27;1.20;;;;;;;6.07;100.00;95493.81;5079286;28;20197;-80
2022/11/21 08:59:40;;;;;;;2.27;1.07;;;;;;;6.16;100.00;95486.28;5083081;28;20193;-79
2022/11/21 09:02:10;;;;;;;1.23;1.00;;;;;;;6.28;100.00;95495.25;5082255;28;20301;-79
2022/11/21 09:04:37;;;;;;;0.97;0.97;;;;;;;6.33;100.00;95492.69;5091903;28;20201;-79
2022/11/21 09:07:04;;;;;;;1.00;0.90;;;;;;;6.32;100.00;95474.97;5086304;28;20192;-79
2022/11/21 09:09:32;;;;;;;1.23;1.00;;;;;;;6.35;100.00;95471.03;5088424;28;20260;-80
2022/11/21 09:12:01;;;;;;;1.00;0.83;;;;;;;6.42;100.00;95458.34;5097725;28;20192;-80
2022/11/21 09:19:58;;;;;;;1.43;1.00;;;;;;;6.80;100.00;95452.69;5087236;28;20371;-80
2022/11/21 09:22:25;;;;;;;1.13;0.90;;;;;;;6.90;100.00;95460.16;5090271;28;20224;-80
2022/11/21 09:24:53;;;;;;;0.87;0.80;;;;;;;6.94;100.00;95454.13;5085930;28;20198;-80
2022/11/21 09:27:20;;;;;;;0.90;0.90;;;;;;;7.01;100.00;95449.47;5090987;28;20200;-81
2022/11/21 09:29:48;;;;;;;1.20;1.00;;;;;;;7.12;100.00;95437.13;5089817;28;20200;-81
2022/11/21 09:32:15;;;;;;;1.53;0.90;;;;;;;7.17;100.00;95429.19;5083409;28;20225;-81
2022/11/21 09:34:42;;;;;;;1.60;1.13;;;;;;;7.18;100.00;95422.78;5084025;28;20297;-81
2022/11/21 09:37:09;;;;;;;1.10;0.97;;;;;;;7.27;100.00;95426.75;5086311;28;20216;-81
2022/11/21 09:39:36;;;;;;;1.43;1.27;;;;;;;7.29;100.00;95419.28;5089409;28;20209;-81
2022/11/21 09:42:30;;;;;;;1.57;1.30;;;;;;;7.45;100.00;95426.66;5092943;28;20204;-81
2022/11/21 09:45:05;;;;;;;1.13;1.03;;;;;;;7.44;100.00;95416.97;5106918;28;20204;-82
2022/11/21 09:47:36;;;;;;;2.87;1.57;;;;;;;7.54;100.00;95405.63;5088284;28;20277;-81
2022/11/21 09:50:06;;;;;;;2.80;1.40;;;;;;;7.64;100.00;95407.75;5089950;28;20316;-81
2022/11/21 09:52:40;;;;;;;2.23;1.53;;;;;;;7.74;100.00;95384.56;5086641;28;20200;-82
2022/11/21 09:55:18;;;;;;;2.87;2.20;;;;;;;7.77;100.00;95388.66;5084547;28;20220;-81
2022/11/21 09:57:48;;;;;;;3.37;1.63;;;;;;;7.82;100.00;95380.75;5080333;28;20300;-81
2022/11/21 10:00:21;;;;;;;2.60;1.70;;;;;;;7.92;100.00;95372.84;5069859;28;20237;-81
2022/11/21 10:02:49;;;;;;;5.67;4.43;;;;;;;8.09;100.00;95373.75;5074494;28;20217;-82
2022/11/21 10:05:17;;;;;;;4.07;3.67;;;;;;;8.23;100.00;95359.00;5088249;28;20219;-82
2022/11/21 10:07:44;;;;;;;3.43;1.70;;;;;;;8.28;100.00;95342.13;5089959;28;20205;-82
2022/11/21 10:10:30;;;;;;;4.00;1.50;;;;;;;8.44;100.00;95345.94;5089277;28;20243;-82
2022/11/21 10:13:09;;;;;;;3.50;1.57;;;;;;;8.51;100.00;95333.97;5089958;28;20205;-81
2022/11/21 10:15:56;;;;;;;2.10;1.47;;;;;;;8.51;100.00;95306.25;5096770;28;20191;-81
2022/11/21 10:18:53;;;;;;;3.53;1.50;;;;;;;8.67;100.00;95317.06;5095505;28;20207;-82
2022/11/21 10:21:38;;;;;;;1.30;1.20;;;;;;;8.73;100.00;95318.78;5099143;28;20208;-81
2022/11/21 10:24:19;;;;;;;1.80;1.33;;;;;;;8.86;100.00;95306.84;5091932;28;20216;-82
2022/11/21 10:26:53;;;;;;;7.30;1.70;;;;;;;8.97;100.00;95297.06;5089068;28;20292;-81
2022/11/21 10:29:26;;;;;;;2.70;1.17;;;;;;;9.30;100.00;95280.06;5091749;28;20205;-81
2022/11/21 10:31:59;;;;;;;1.83;1.20;;;;;;;9.39;100.00;95274.00;5091589;28;20206;-81
2022/11/21 10:34:30;;;;;;;1.50;1.30;;;;;;;9.66;100.00;95282.16;5082242;28;20254;-80
2022/11/21 10:37:02;;;;;;;1.80;1.40;;;;;;;9.92;100.00;95269.00;5079929;28;20204;-80
2022/11/21 10:39:37;;;;;;;1.43;1.00;;;;;;;9.85;100.00;95264.63;5086405;28;20198;-79
2022/11/21 10:42:12;;;;;;;1.20;1.00;;;;;;;9.72;99.86;95253.38;5096171;28;20243;-79
2022/11/21 10:47:31;;;;;;;1.00;0.90;;;;;;;9.53;100.00;95250.19;5091913;28;20210;-80
2022/11/21 10:50:04;;;;;;;1.60;0.80;;;;;;;9.46;100.00;95244.97;5085127;28;20300;-80
2022/11/21 10:52:35;;;;;;;0.70;0.70;;;;;;;9.35;100.00;95232.47;5091761;28;20214;-80
2022/11/21 10:55:09;;;;;;;0.83;0.70;;;;;;;9.34;100.00;95230.03;5085040;28;20237;-80
2022/11/21 10:57:43;;;;;;;0.70;0.70;;;;;;;9.33;100.00;95233.78;5091773;28;20216;-80
2022/11/21 11:00:24;;;;;;;1.50;0.97;;;;;;;9.29;100.00;95225.38;5081589;28;20287;-80
2022/11/21 11:03:16;;;;;;;3.17;0.90;;;;;;;9.04;100.00;95222.31;5088691;28;20351;-80
2022/11/21 11:05:57;;;;;;;1.00;0.80;;;;;;;8.90;100.00;95218.38;5085312;28;20200;-80
2022/11/21 11:08:26;;;;;;;0.87;0.80;;;;;;;8.85;100.00;95200.25;5095501;28;20228;-79
2022/11/21 11:11:08;;;;;;;1.00;0.90;;;;;;;8.89;100.00;95196.00;5092268;28;20315;-80
2022/11/21 11:13:54;;;;;;;1.60;0.80;;;;;;;8.94;100.00;95177.22;5076772;28;20198;-79
2022/11/21 11:16:24;;;;;;;3.43;1.10;;;;;;;8.99;100.00;95171.94;5092109;28;20207;-79
2022/11/21 11:18:58;;;;;;;1.07;0.83;;;;;;;9.06;100.00;95159.09;5088255;28;20198;-79
2022/11/21 11:21:27;;;;;;;1.00;0.90;;;;;;;9.18;100.00;95144.72;5087666;28;20274;-80
2022/11/21 11:24:05;;;;;;;1.33;0.97;;;;;;;9.37;100.00;95137.91;5090249;28;20216;-80
2022/11/21 11:26:33;;;;;;;3.03;0.90;;;;;;;9.43;100.00;95128.84;5080557;28;20259;-80
2022/11/21 11:29:10;;;;;;;3.83;1.10;;;;;;;9.59;100.00;95136.03;5081341;28;20209;-80
2022/11/21 11:31:42;;;;;;;1.57;1.20;;;;;;;9.78;100.00;95121.09;5090657;28;20216;-80
2022/11/21 11:34:14;;;;;;;3.37;1.60;;;;;;;10.08;100.00;95130.56;5087775;28;20237;-80
2022/11/21 11:36:53;;;;;;;1.60;1.40;;;;;;;10.50;100.00;95117.97;5079131;28;20229;-78
2022/11/21 11:39:35;;;;;;;2.17;1.13;;;;;;;10.97;100.00;95106.38;5079986;28;20204;-80
2022/11/21 11:48:18;;;;;;;3.47;0.97;;;;;;;11.74;89.15;95082.03;5070880;28;20208;-79
2022/11/21 11:50:50;;;;;;;1.07;0.97;;;;;;;11.61;87.86;95071.72;5089663;28;20225;-79
2022/11/21 11:53:20;;;;;;;1.50;0.90;;;;;;;11.57;87.30;95056.31;5079265;28;20270;-79
2022/11/21 11:55:52;;;;;;;1.60;1.20;;;;;;;11.69;88.65;95051.47;5092686;28;20193;-79
2022/11/21 11:58:25;;;;;;;1.47;1.20;;;;;;;11.85;88.46;95055.84;5086745;28;20211;-79
2022/11/21 12:01:00;;;;;;;1.97;1.10;;;;;;;11.95;87.00;95042.31;5089743;28;20250;-79
2022/11/21 12:03:40;;;;;;;2.27;1.07;;;;;;;11.79;85.11;95026.34;5085766;28;20221;-79